Time;durP1;ratioP1;P1;durP2;ratioP2;P2;SDS_P1;SDS_P2;PMS_P1;PMS_P2;Temp;Humidity;BMP_temperature;BMP_pressure;BME280_temperature;BME280_humidity;BME280_pressure;Samples;Min_cycle;Max_cycle;Signal;HPM_P1;HPM_P2
2022/08/14 00:01:56;;;;;;;18.40;16.53;;;20.80;99.90;;;;;;4974594;28;20423;-79
2022/08/14 00:04:23;;;;;;;17.27;15.47;;;20.90;99.90;;;;;;4976940;28;20451;-80
2022/08/14 00:07:08;;;;;;;17.87;15.00;;;21.00;99.90;;;;;;4978651;28;20468;-79
2022/08/14 00:09:36;;;;;;;17.10;15.40;;;21.10;99.90;;;;;;4977510;28;20628;-79
2022/08/14 00:12:23;;;;;;;17.33;15.60;;;21.10;99.90;;;;;;4977427;28;20443;-79
2022/08/14 00:15:22;;;;;;;17.50;15.60;;;21.00;99.90;;;;;;4982284;28;20430;-81
2022/08/14 00:17:50;;;;;;;20.53;18.33;;;20.90;99.90;;;;;;4969272;28;20403;-81
2022/08/14 00:20:26;;;;;;;20.50;16.43;;;20.80;99.90;;;;;;4972518;28;20452;-81
2022/08/14 00:23:02;;;;;;;16.77;15.00;;;20.80;99.90;;;;;;4978003;28;20412;-81
2022/08/14 00:25:38;;;;;;;19.03;16.03;;;20.70;99.90;;;;;;4980973;28;20444;-81
2022/08/14 00:28:10;;;;;;;17.87;16.17;;;20.80;99.90;;;;;;4978048;28;20610;-81
2022/08/14 00:30:44;;;;;;;18.40;16.40;;;20.80;99.90;;;;;;4979992;28;20492;-80
2022/08/14 00:33:15;;;;;;;18.20;16.03;;;20.70;99.90;;;;;;4977490;28;20436;-80
2022/08/14 00:35:44;;;;;;;18.23;16.43;;;20.70;99.90;;;;;;4979319;28;20503;-80
2022/08/14 00:38:31;;;;;;;19.67;17.57;;;20.80;99.90;;;;;;4980436;28;20659;-80
2022/08/14 00:41:05;;;;;;;17.90;16.00;;;20.80;99.90;;;;;;4978990;28;20626;-79
2022/08/14 00:43:37;;;;;;;17.00;14.97;;;20.90;99.90;;;;;;4979607;28;20415;-79
2022/08/14 00:46:09;;;;;;;17.40;15.70;;;20.90;99.90;;;;;;4978167;28;20399;-80
2022/08/14 00:48:56;;;;;;;17.03;15.23;;;20.90;99.90;;;;;;4970459;28;20438;-80
2022/08/14 00:51:24;;;;;;;17.03;15.40;;;21.10;99.90;;;;;;4980919;28;20928;-80
2022/08/14 00:54:05;;;;;;;17.67;15.97;;;21.10;99.90;;;;;;4981503;28;20516;-80
2022/08/14 00:56:47;;;;;;;18.03;16.23;;;21.20;99.90;;;;;;4977562;28;20608;-81
2022/08/14 00:59:16;;;;;;;16.87;15.20;;;21.00;99.90;;;;;;4979931;28;20541;-81
2022/08/14 01:01:44;;;;;;;17.60;15.90;;;21.00;99.90;;;;;;4977700;28;20456;-81
2022/08/14 01:04:12;;;;;;;15.70;14.23;;;21.00;99.90;;;;;;4981194;28;20420;-80
2022/08/14 01:07:01;;;;;;;17.40;15.60;;;21.00;99.90;;;;;;4974466;28;20419;-80
2022/08/14 01:09:35;;;;;;;15.73;14.20;;;21.10;99.90;;;;;;4978929;28;20417;-80
2022/08/14 01:12:04;;;;;;;17.17;15.23;;;21.10;99.90;;;;;;4979936;28;20550;-81
2022/08/14 01:14:34;;;;;;;17.23;15.43;;;21.20;99.90;;;;;;4981649;28;20488;-80
2022/08/14 01:17:02;;;;;;;17.00;14.63;;;21.20;99.90;;;;;;4979993;28;20428;-80
2022/08/14 01:22:19;;;;;;;17.20;15.70;;;21.20;99.90;;;;;;4976515;28;20427;-79
2022/08/14 01:24:52;;;;;;;16.00;14.40;;;21.20;99.90;;;;;;4972552;28;20767;-82
2022/08/14 01:27:21;;;;;;;16.40;14.70;;;21.10;99.90;;;;;;4977286;28;20428;-80
2022/08/14 01:29:56;;;;;;;16.40;14.80;;;21.00;99.90;;;;;;4976869;28;20533;-79
2022/08/14 01:32:32;;;;;;;16.07;14.53;;;20.80;99.90;;;;;;4979466;28;20788;-80
2022/08/14 01:35:09;;;;;;;17.90;14.40;;;20.80;99.90;;;;;;4981497;28;20424;-80
2022/08/14 01:37:56;;;;;;;16.27;14.57;;;20.70;99.90;;;;;;4977054;28;20404;-81
2022/08/14 01:40:25;;;;;;;13.37;12.07;;;20.70;99.90;;;;;;4979964;28;20463;-80
2022/08/14 01:43:16;;;;;;;15.33;13.77;;;20.50;99.90;;;;;;4978733;28;20510;-80
2022/08/14 01:45:52;;;;;;;15.17;13.60;;;20.50;99.90;;;;;;4972775;28;20438;-79
2022/08/14 01:48:33;;;;;;;15.40;13.43;;;20.50;99.90;;;;;;4975157;28;20423;-79
2022/08/14 01:51:05;;;;;;;14.27;12.77;;;20.40;99.90;;;;;;4979775;28;20743;-78
2022/08/14 01:53:48;;;;;;;16.10;12.57;;;20.40;99.90;;;;;;4976338;28;20451;-80
2022/08/14 01:56:35;;;;;;;14.17;12.07;;;20.20;99.90;;;;;;4978952;28;20444;-78
2022/08/14 01:59:18;;;;;;;14.57;13.17;;;20.10;99.90;;;;;;4979735;28;20626;-81
2022/08/14 02:01:48;;;;;;;14.33;12.90;;;20.00;99.90;;;;;;4976727;28;20422;-78
2022/08/14 02:04:32;;;;;;;16.00;12.00;;;19.90;99.90;;;;;;4976952;28;20448;-80
2022/08/14 02:07:20;;;;;;;14.40;13.00;;;19.90;99.90;;;;;;4967036;28;20404;-80
2022/08/14 02:10:07;;;;;;;14.27;12.40;;;19.90;99.90;;;;;;4970873;28;20429;-79
2022/08/14 02:12:45;;;;;;;14.57;13.07;;;20.00;99.90;;;;;;4977694;28;20548;-78
2022/08/14 02:15:20;;;;;;;15.53;13.97;;;19.90;99.90;;;;;;4979210;28;20439;-79
2022/08/14 02:17:48;;;;;;;14.77;13.27;;;19.90;99.90;;;;;;4976247;28;20541;-79
2022/08/14 02:20:16;;;;;;;14.73;12.20;;;19.90;99.90;;;;;;4978816;28;20457;-79
2022/08/14 02:22:51;;;;;;;14.13;12.03;;;19.80;99.90;;;;;;4968775;28;20494;-79
2022/08/14 02:25:21;;;;;;;15.33;10.80;;;19.80;99.90;;;;;;4982109;28;20503;-80
2022/08/14 02:27:48;;;;;;;15.03;13.53;;;19.70;99.90;;;;;;4984510;28;20515;-78
2022/08/14 02:30:35;;;;;;;14.60;13.10;;;19.70;99.90;;;;;;4983454;28;20460;-79
2022/08/14 02:33:06;;;;;;;17.07;13.60;;;19.60;99.90;;;;;;4997116;28;20418;-80
2022/08/14 02:35:42;;;;;;;16.13;13.47;;;19.50;99.90;;;;;;4986630;28;20395;-79
2022/08/14 02:38:23;;;;;;;13.73;12.40;;;19.50;99.90;;;;;;4977945;28;20415;-80
2022/08/14 02:40:59;;;;;;;15.10;12.80;;;19.70;99.90;;;;;;4975077;28;20481;-80
2022/08/14 02:43:29;;;;;;;13.83;12.53;;;19.70;99.90;;;;;;4979039;28;20429;-80
2022/08/14 02:46:04;;;;;;;15.47;13.97;;;19.60;99.90;;;;;;4971561;28;20621;-80
2022/08/14 02:48:41;;;;;;;13.37;11.97;;;19.60;99.90;;;;;;4977498;28;20415;-81
2022/08/14 02:51:34;;;;;;;14.40;12.90;;;19.70;99.90;;;;;;4975810;28;20832;-79
2022/08/14 02:54:07;;;;;;;13.27;11.97;;;19.60;99.90;;;;;;4978326;28;20510;-80
2022/08/14 02:56:37;;;;;;;13.63;11.73;;;19.70;99.90;;;;;;4975099;28;20428;-81
2022/08/14 02:59:30;;;;;;;15.80;13.30;;;19.50;99.90;;;;;;4970400;28;20765;-81
2022/08/14 03:02:00;;;;;;;15.00;13.60;;;19.50;99.90;;;;;;4979883;28;20485;-81
2022/08/14 03:04:29;;;;;;;15.73;14.10;;;19.50;99.90;;;;;;4963139;28;20481;-80
2022/08/14 03:06:57;;;;;;;13.90;12.47;;;19.60;99.90;;;;;;4979624;28;20452;-82
2022/08/14 03:09:35;;;;;;;13.83;12.47;;;19.40;99.90;;;;;;4977912;28;20444;-80
2022/08/14 03:12:22;;;;;;;14.40;12.90;;;19.30;99.90;;;;;;4977705;28;20480;-81
2022/08/14 03:14:58;;;;;;;15.40;13.80;;;19.30;99.90;;;;;;4975746;28;20515;-81
2022/08/14 03:17:25;;;;;;;14.70;12.73;;;19.30;99.90;;;;;;4978840;28;20437;-81
2022/08/14 03:20:13;;;;;;;17.97;16.27;;;19.30;99.90;;;;;;4978245;28;20659;-82
2022/08/14 03:22:42;;;;;;;17.73;14.53;;;19.30;99.90;;;;;;4979853;28;20437;-82
2022/08/14 03:25:16;;;;;;;15.60;14.00;;;19.20;99.90;;;;;;4970670;28;20759;-82
2022/08/14 03:27:43;;;;;;;15.63;14.03;;;19.20;99.90;;;;;;4968175;28;20557;-80
2022/08/14 03:30:25;;;;;;;15.10;13.50;;;19.30;99.90;;;;;;4969035;28;20451;-82
2022/08/14 03:33:08;;;;;;;15.37;13.77;;;19.20;99.90;;;;;;4979188;28;20525;-81
2022/08/14 03:35:38;;;;;;;15.47;13.90;;;19.10;99.90;;;;;;4974254;28;20440;-82
2022/08/14 03:38:25;;;;;;;15.50;14.10;;;19.30;99.90;;;;;;4978925;28;20407;-82
2022/08/14 03:41:20;;;;;;;16.83;14.67;;;19.50;99.90;;;;;;4977943;28;20472;-83
2022/08/14 03:43:57;;;;;;;17.07;14.40;;;19.60;99.90;;;;;;4975916;28;20399;-81
2022/08/14 03:46:44;;;;;;;13.70;12.30;;;19.70;99.90;;;;;;4979099;28;20436;-81
2022/08/14 03:49:23;;;;;;;16.80;15.00;;;19.80;99.90;;;;;;4983200;28;20439;-81
2022/08/14 03:51:56;;;;;;;14.57;13.07;;;19.60;99.90;;;;;;4975793;28;20480;-81
2022/08/14 03:54:27;;;;;;;15.13;13.63;;;19.40;99.90;;;;;;4981999;28;20436;-81
2022/08/14 03:56:59;;;;;;;16.07;14.37;;;19.30;99.90;;;;;;4978138;28;20507;-81
2022/08/14 03:59:29;;;;;;;15.90;14.27;;;19.20;99.90;;;;;;4980260;28;20490;-82
2022/08/14 04:01:57;;;;;;;16.70;14.33;;;19.40;99.90;;;;;;4980223;28;20445;-82
2022/08/14 04:04:31;;;;;;;17.03;15.33;;;19.60;99.90;;;;;;4978102;28;20931;-81
2022/08/14 04:06:59;;;;;;;16.30;14.40;;;19.80;99.90;;;;;;4975127;28;20436;-80
2022/08/14 04:09:28;;;;;;;19.60;15.50;;;19.80;99.90;;;;;;4977620;28;20437;-81
2022/08/14 04:11:55;;;;;;;15.57;13.30;;;19.80;99.90;;;;;;4975722;28;20524;-80
2022/08/14 04:14:25;;;;;;;18.27;14.77;;;20.00;99.90;;;;;;4976284;28;20464;-80
2022/08/14 04:16:52;;;;;;;16.73;15.03;;;20.00;99.90;;;;;;4976077;28;20463;-80
2022/08/14 04:19:22;;;;;;;17.00;14.77;;;20.00;99.90;;;;;;4975266;28;20416;-80
2022/08/14 04:21:50;;;;;;;17.67;14.57;;;20.10;99.90;;;;;;4980311;28;20433;-81
2022/08/14 04:24:31;;;;;;;13.77;12.33;;;20.00;99.90;;;;;;4978307;28;20492;-81
2022/08/14 04:27:08;;;;;;;15.90;14.30;;;20.00;99.90;;;;;;4979021;28;20486;-80
2022/08/14 04:29:40;;;;;;;15.40;13.80;;;20.10;99.90;;;;;;4972755;28;20403;-79
2022/08/14 04:32:11;;;;;;;14.80;13.20;;;20.10;99.90;;;;;;4977699;28;20464;-81
2022/08/14 04:34:58;;;;;;;20.00;14.10;;;20.30;99.90;;;;;;4978654;28;20745;-80
2022/08/14 04:45:51;;;;;;;14.30;12.40;;;20.30;99.90;;;;;;4979390;28;20431;-80
2022/08/14 04:48:19;;;;;;;15.43;13.83;;;20.30;99.90;;;;;;4974812;28;20612;-81
2022/08/14 04:51:09;;;;;;;15.57;12.80;;;20.50;99.90;;;;;;4973654;28;20472;-82
2022/08/14 04:53:41;;;;;;;15.60;14.10;;;20.50;99.90;;;;;;4976623;28;20933;-81
2022/08/14 04:56:11;;;;;;;16.77;14.13;;;20.80;99.90;;;;;;4978489;28;20460;-79
2022/08/14 04:59:03;;;;;;;14.83;12.97;;;20.80;99.90;;;;;;4973648;28;20535;-80
2022/08/14 05:01:38;;;;;;;15.07;13.47;;;20.90;99.90;;;;;;4969840;28;20416;-80
2022/08/14 05:04:07;;;;;;;14.73;13.13;;;20.80;99.90;;;;;;4982232;28;20840;-79
2022/08/14 05:06:41;;;;;;;15.57;13.97;;;20.80;99.90;;;;;;4976507;28;20511;-81
2022/08/14 05:09:08;;;;;;;14.67;13.10;;;20.90;99.90;;;;;;4979070;28;20425;-81
2022/08/14 05:11:39;;;;;;;15.63;13.17;;;21.00;99.90;;;;;;4980758;28;20488;-80
2022/08/14 05:14:08;;;;;;;14.27;12.87;;;21.00;99.90;;;;;;4976320;28;20453;-79
2022/08/14 05:16:57;;;;;;;15.80;14.20;;;21.20;99.90;;;;;;4979593;28;20931;-80
2022/08/14 05:19:28;;;;;;;14.80;13.33;;;21.40;99.90;;;;;;4979743;28;20444;-82
2022/08/14 05:21:58;;;;;;;12.30;11.10;;;21.80;99.90;;;;;;4977814;28;20465;-81
2022/08/14 05:24:48;;;;;;;14.50;13.10;;;22.00;99.90;;;;;;4979317;28;20449;-81
2022/08/14 05:27:19;;;;;;;13.87;12.53;;;22.10;99.90;;;;;;4979593;28;20411;-82
2022/08/14 05:29:53;;;;;;;13.80;12.50;;;22.10;99.90;;;;;;4973767;28;20415;-82
2022/08/14 05:32:25;;;;;;;13.77;12.37;;;22.10;99.90;;;;;;4973773;28;20453;-82
2022/08/14 05:35:02;;;;;;;13.67;12.23;;;22.10;99.90;;;;;;4979223;28;20435;-81
2022/08/14 05:37:30;;;;;;;13.77;12.30;;;22.10;99.90;;;;;;4977351;28;20405;-81
2022/08/14 05:39:58;;;;;;;13.27;11.80;;;22.00;99.90;;;;;;4979465;28;20416;-82
2022/08/14 05:42:27;;;;;;;13.20;11.90;;;22.10;99.90;;;;;;4976414;28;20481;-80
2022/08/14 05:44:57;;;;;;;14.57;13.17;;;22.20;99.90;;;;;;4969385;28;20441;-81
2022/08/14 05:47:24;;;;;;;13.50;12.17;;;22.20;99.90;;;;;;4975488;28;20456;-81
2022/08/14 05:50:00;;;;;;;14.97;13.37;;;22.20;99.90;;;;;;4978751;28;20467;-81
2022/08/14 05:52:27;;;;;;;15.27;12.20;;;22.20;99.90;;;;;;4970170;28;20488;-82
2022/08/14 05:55:07;;;;;;;12.97;11.67;;;22.20;99.90;;;;;;4971878;28;20663;-82
2022/08/14 05:57:48;;;;;;;14.80;13.23;;;22.40;99.90;;;;;;4967075;28;20621;-80
2022/08/14 06:00:19;;;;;;;12.80;11.50;;;22.50;99.90;;;;;;4973454;28;20436;-80
2022/08/14 06:02:55;;;;;;;13.53;12.10;;;22.50;99.90;;;;;;4971193;28;20454;-80
2022/08/14 06:05:22;;;;;;;13.90;12.40;;;22.40;99.90;;;;;;4964357;28;20510;-80
2022/08/14 06:07:55;;;;;;;13.23;11.23;;;22.00;99.90;;;;;;4964736;28;20782;-80
2022/08/14 06:10:23;;;;;;;13.30;12.10;;;21.80;99.90;;;;;;4969616;28;20435;-80
2022/08/14 06:12:50;;;;;;;13.23;12.00;;;21.90;99.90;;;;;;4969594;28;20873;-82
2022/08/14 06:15:25;;;;;;;10.70;9.20;;;22.00;99.90;;;;;;4970987;28;20417;-80
2022/08/14 06:17:56;;;;;;;14.57;12.20;;;22.10;99.90;;;;;;4969743;28;20418;-80
2022/08/14 06:20:26;;;;;;;12.17;10.97;;;22.20;99.90;;;;;;4962456;28;20464;-82
2022/08/14 06:22:54;;;;;;;13.20;11.80;;;22.60;99.90;;;;;;4962426;28;20434;-80
2022/08/14 06:25:22;;;;;;;10.30;9.40;;;22.80;99.90;;;;;;4966317;28;20419;-81
2022/08/14 06:27:51;;;;;;;12.73;11.40;;;23.10;99.90;;;;;;4965584;28;20415;-81
2022/08/14 06:30:22;;;;;;;10.50;9.60;;;23.20;99.90;;;;;;4968065;28;20427;-82
2022/08/14 06:32:56;;;;;;;13.00;11.50;;;23.20;99.90;;;;;;4968195;28;20450;-82
2022/08/14 06:35:23;;;;;;;13.13;11.70;;;23.20;99.90;;;;;;4966521;28;20491;-81
2022/08/14 06:37:57;;;;;;;12.03;10.90;;;22.90;99.90;;;;;;4978327;28;20466;-80
2022/08/14 06:40:32;;;;;;;13.10;11.70;;;22.80;99.90;;;;;;4975819;28;20451;-82
2022/08/14 06:43:10;;;;;;;12.30;11.10;;;22.60;99.90;;;;;;4976673;28;20600;-81
2022/08/14 06:45:42;;;;;;;12.83;11.57;;;22.70;99.90;;;;;;4976595;28;20429;-80
2022/08/14 06:48:24;;;;;;;13.43;12.03;;;22.80;99.90;;;;;;4974014;28;20450;-82
2022/08/14 06:50:54;;;;;;;12.10;11.00;;;22.80;99.90;;;;;;4969694;28;20480;-82
2022/08/14 06:53:23;;;;;;;13.50;12.10;;;22.70;99.90;;;;;;4971297;28;20510;-80
2022/08/14 06:55:56;;;;;;;13.20;12.10;;;22.90;99.90;;;;;;4974417;28;20498;-79
2022/08/14 06:58:29;;;;;;;13.70;11.60;;;22.80;99.90;;;;;;4971371;28;20643;-81
2022/08/14 07:06:53;;;;;;;15.50;13.87;;;22.50;99.90;;;;;;4966895;28;20437;-80
2022/08/14 07:09:26;;;;;;;14.70;13.30;;;22.70;99.90;;;;;;4976006;28;20452;-82
2022/08/14 07:12:09;;;;;;;16.50;14.80;;;22.70;99.90;;;;;;4975108;28;20454;-80
2022/08/14 07:14:56;;;;;;;19.53;14.43;;;22.70;99.90;;;;;;4969579;28;20405;-81
2022/08/14 07:17:27;;;;;;;18.27;14.63;;;22.90;99.90;;;;;;4974765;28;20447;-81
2022/08/14 07:19:57;;;;;;;14.37;12.67;;;23.00;99.90;;;;;;4975441;28;20518;-81
2022/08/14 07:22:25;;;;;;;16.47;14.73;;;23.10;99.90;;;;;;4965158;28;20439;-81
2022/08/14 07:25:13;;;;;;;13.87;12.57;;;23.30;99.90;;;;;;4966638;28;20422;-80
2022/08/14 07:27:41;;;;;;;12.40;11.17;;;23.60;99.90;;;;;;4969466;28;20423;-82
2022/08/14 07:30:09;;;;;;;13.40;11.97;;;23.90;99.90;;;;;;4971276;28;20618;-81
2022/08/14 07:32:56;;;;;;;13.83;12.53;;;23.90;99.90;;;;;;4973962;28;20446;-81
2022/08/14 07:35:23;;;;;;;13.33;11.97;;;24.00;99.90;;;;;;4991293;28;20460;-80
2022/08/14 07:37:55;;;;;;;13.10;11.80;;;24.00;99.90;;;;;;4982138;28;20403;-80
2022/08/14 07:40:25;;;;;;;13.40;12.13;;;23.90;99.90;;;;;;4988123;28;20444;-80
2022/08/14 07:42:54;;;;;;;13.30;12.10;;;24.00;99.90;;;;;;4987518;28;20443;-78
2022/08/14 07:45:21;;;;;;;14.43;12.40;;;23.90;99.90;;;;;;4979420;28;20450;-82
2022/08/14 07:47:48;;;;;;;13.33;12.20;;;24.00;99.90;;;;;;4970124;28;20599;-80
2022/08/14 07:50:19;;;;;;;12.27;11.17;;;24.20;99.90;;;;;;4972597;28;20432;-81
2022/08/14 07:52:49;;;;;;;12.97;11.63;;;24.50;99.90;;;;;;4975851;28;20470;-80
2022/08/14 07:55:17;;;;;;;14.17;12.87;;;25.00;99.90;;;;;;4973735;28;20846;-81
2022/08/14 07:57:47;;;;;;;14.67;12.80;;;25.20;99.90;;;;;;4969671;28;20483;-79
2022/08/14 08:00:21;;;;;;;14.53;12.60;;;25.10;99.90;;;;;;4965433;28;20416;-81
2022/08/14 08:02:59;;;;;;;12.10;11.03;;;25.00;99.90;;;;;;4966845;28;20847;-81
2022/08/14 08:05:26;;;;;;;14.70;13.30;;;24.80;99.90;;;;;;4978508;28;20734;-80
2022/08/14 08:07:53;;;;;;;13.80;12.60;;;24.90;99.90;;;;;;4971354;28;20506;-81
2022/08/14 08:10:31;;;;;;;12.90;11.63;;;24.70;99.90;;;;;;4972805;28;20427;-81
2022/08/14 08:13:20;;;;;;;15.13;13.70;;;24.30;99.90;;;;;;4967329;28;20455;-80
2022/08/14 08:15:52;;;;;;;15.67;14.23;;;23.90;99.90;;;;;;4977835;28;20473;-82
2022/08/14 08:18:19;;;;;;;12.63;11.33;;;23.70;99.90;;;;;;4977351;28;20518;-81
2022/08/14 08:20:55;;;;;;;14.97;13.30;;;23.60;99.90;;;;;;4994580;28;20444;-81
2022/08/14 08:23:28;;;;;;;13.00;11.80;;;23.90;99.90;;;;;;4992488;28;20511;-79
2022/08/14 08:26:06;;;;;;;15.07;13.57;;;24.10;99.90;;;;;;4998311;28;20406;-79
2022/08/14 08:28:35;;;;;;;14.80;13.37;;;24.20;99.90;;;;;;4990460;28;20442;-83
2022/08/14 08:31:05;;;;;;;13.77;12.40;;;24.40;99.90;;;;;;4978860;28;20447;-80
2022/08/14 08:33:35;;;;;;;13.10;11.90;;;25.10;99.90;;;;;;4980900;28;20482;-80
2022/08/14 08:36:10;;;;;;;13.57;12.37;;;26.10;99.90;;;;;;4964922;28;20475;-80
2022/08/14 08:38:45;;;;;;;12.27;11.07;;;28.20;99.90;;;;;;4977162;28;20454;-80
2022/08/14 08:41:44;;;;;;;11.80;10.63;;;29.70;99.90;;;;;;4973788;28;20440;-80
2022/08/14 08:44:16;;;;;;;12.23;11.13;;;28.90;99.90;;;;;;4969793;28;20412;-81
2022/08/14 08:47:06;;;;;;;11.27;10.27;;;27.80;99.90;;;;;;4966511;28;20483;-78
2022/08/14 08:49:41;;;;;;;11.23;10.23;;;27.80;99.90;;;;;;4969840;28;20427;-79
2022/08/14 08:52:29;;;;;;;11.10;10.10;;;28.90;99.90;;;;;;4969137;28;20539;-82
2022/08/14 08:54:58;;;;;;;13.63;10.90;;;31.10;99.90;;;;;;4965554;28;20488;-80
2022/08/14 08:57:26;;;;;;;11.30;10.20;;;32.30;99.90;;;;;;4966032;28;20449;-81
2022/08/14 08:59:53;;;;;;;12.43;11.43;;;32.50;99.90;;;;;;4965801;28;20818;-80
2022/08/14 09:02:24;;;;;;;12.50;11.30;;;32.30;99.90;;;;;;4968974;28;20436;-82
2022/08/14 09:05:01;;;;;;;13.10;11.80;;;30.30;99.90;;;;;;4962630;28;20453;-79
2022/08/14 09:07:27;;;;;;;11.43;10.37;;;28.70;99.90;;;;;;4970437;28;20468;-79
2022/08/14 09:09:57;;;;;;;11.53;10.53;;;27.90;99.90;;;;;;4969513;28;20586;-82
2022/08/14 09:12:32;;;;;;;12.20;11.10;;;27.10;99.90;;;;;;4977885;28;20656;-80
2022/08/14 09:15:06;;;;;;;13.07;11.87;;;26.40;99.90;;;;;;4980168;28;20802;-80
2022/08/14 09:17:39;;;;;;;13.33;12.13;;;26.10;99.90;;;;;;4975821;28;20444;-81
2022/08/14 09:20:11;;;;;;;12.87;11.77;;;25.80;99.90;;;;;;4978911;28;20440;-81
2022/08/14 09:22:40;;;;;;;11.90;10.87;;;25.80;99.90;;;;;;4981673;28;20426;-81
2022/08/14 09:25:15;;;;;;;13.77;12.40;;;25.70;99.90;;;;;;4980675;28;20441;-82
2022/08/14 09:27:45;;;;;;;12.83;11.63;;;25.60;99.90;;;;;;4983768;28;20419;-83
2022/08/14 09:30:13;;;;;;;21.00;15.20;;;25.20;99.90;;;;;;4980078;28;20450;-83
2022/08/14 09:33:02;;;;;;;15.60;14.03;;;24.90;99.90;;;;;;4976533;28;20458;-81
2022/08/14 09:35:56;;;;;;;13.93;12.63;;;24.90;99.90;;;;;;4982799;28;20419;-84
2022/08/14 09:38:52;;;;;;;16.67;14.63;;;24.70;99.90;;;;;;4984147;28;20432;-82
2022/08/14 09:41:51;;;;;;;14.80;13.30;;;24.80;99.90;;;;;;4972378;28;20475;-80
2022/08/14 09:45:01;;;;;;;12.73;11.53;;;24.60;99.90;;;;;;4971631;28;20411;-83
2022/08/14 09:47:47;;;;;;;15.07;13.70;;;24.40;99.90;;;;;;4975605;28;20465;-81
2022/08/14 09:50:31;;;;;;;12.67;11.50;;;24.90;99.90;;;;;;4967592;28;20782;-81
2022/08/14 09:53:02;;;;;;;11.97;10.97;;;25.80;99.90;;;;;;4983238;28;20814;-82
2022/08/14 09:55:34;;;;;;;12.27;11.17;;;26.40;99.90;;;;;;4972925;28;21090;-82
2022/08/14 09:58:12;;;;;;;11.00;9.97;;;26.80;99.90;;;;;;4979609;28;20436;-80
2022/08/14 10:00:59;;;;;;;12.20;10.53;;;26.60;99.90;;;;;;4978855;28;20463;-80
2022/08/14 10:03:31;;;;;;;11.60;10.60;;;26.20;99.90;;;;;;4982786;28;20839;-84
2022/08/14 10:06:14;;;;;;;10.30;9.40;;;26.10;99.90;;;;;;4976820;28;20587;-87
2022/08/14 10:08:58;;;;;;;10.63;9.63;;;25.10;99.90;;;;;;4971070;28;20444;-84
2022/08/14 10:11:34;;;;;;;11.90;10.10;;;24.20;99.90;;;;;;4981840;28;20467;-81
2022/08/14 10:14:19;;;;;;;12.50;11.40;;;23.60;99.90;;;;;;4978985;28;20555;-85
2022/08/14 10:17:04;;;;;;;12.37;11.27;;;23.20;99.90;;;;;;4977374;28;20501;-85
2022/08/14 10:19:34;;;;;;;13.53;11.63;;;22.90;99.90;;;;;;4978999;28;20452;-82
2022/08/14 10:22:07;;;;;;;12.40;11.20;;;22.70;99.90;;;;;;4978438;28;20489;-79
2022/08/14 10:24:55;;;;;;;13.30;12.23;;;22.50;99.90;;;;;;4974180;28;20441;-82
2022/08/14 10:27:24;;;;;;;12.80;11.47;;;22.10;99.90;;;;;;4979069;28;20438;-84
2022/08/14 10:30:03;;;;;;;13.80;12.60;;;22.00;99.90;;;;;;4972504;28;20622;-81
2022/08/14 10:32:45;;;;;;;12.30;11.20;;;22.10;99.90;;;;;;4972324;28;20450;-85
2022/08/14 10:35:18;;;;;;;15.57;14.07;;;21.90;99.90;;;;;;4974607;28;20422;-83
2022/08/14 10:37:51;;;;;;;16.00;14.53;;;21.90;99.90;;;;;;4977947;28;20764;-85
2022/08/14 10:40:30;;;;;;;14.50;13.10;;;22.00;99.90;;;;;;4973754;28;20979;-82
2022/08/14 10:43:26;;;;;;;15.33;13.83;;;22.20;99.90;;;;;;4966439;28;20546;-84
2022/08/14 10:46:00;;;;;;;15.63;13.57;;;22.30;99.90;;;;;;4969157;28;20479;-81
2022/08/14 10:48:56;;;;;;;15.23;13.70;;;22.80;99.90;;;;;;4973396;28;20430;-85
2022/08/14 10:51:28;;;;;;;15.67;14.27;;;23.20;99.90;;;;;;4976592;28;21043;-84
2022/08/14 10:54:06;;;;;;;16.20;14.63;;;23.50;99.90;;;;;;4976506;28;20446;-83
2022/08/14 10:56:54;;;;;;;15.90;14.50;;;23.50;99.90;;;;;;4972616;28;20623;-83
2022/08/14 10:59:22;;;;;;;16.43;15.03;;;23.40;99.90;;;;;;4974577;28;20981;-84
2022/08/14 11:01:58;;;;;;;17.03;15.27;;;23.40;99.90;;;;;;4971174;28;20983;-82
2022/08/14 11:04:27;;;;;;;17.30;15.60;;;23.60;99.90;;;;;;4977632;28;20460;-82
2022/08/14 11:06:57;;;;;;;15.70;14.30;;;23.70;99.90;;;;;;4972035;28;20445;-83
2022/08/14 11:09:23;;;;;;;12.27;11.17;;;24.00;99.90;;;;;;4973571;28;20463;-79
2022/08/14 11:11:56;;;;;;;15.63;12.83;;;24.50;99.90;;;;;;4978911;28;20448;-82
2022/08/14 11:14:54;;;;;;;13.57;12.20;;;24.90;99.90;;;;;;4982349;28;20440;-81
2022/08/14 11:17:34;;;;;;;11.10;10.17;;;25.50;99.90;;;;;;4976384;28;20423;-83
2022/08/14 11:20:04;;;;;;;10.93;10.03;;;26.00;99.90;;;;;;4978217;28;20436;-83
2022/08/14 11:22:41;;;;;;;13.07;11.60;;;25.90;99.90;;;;;;4976415;28;20481;-84
2022/08/14 11:25:24;;;;;;;10.83;9.97;;;25.40;99.90;;;;;;4975247;28;21023;-82
2022/08/14 11:28:12;;;;;;;15.47;10.00;;;24.70;99.90;;;;;;4976023;28;20467;-81
2022/08/14 11:30:47;;;;;;;12.13;11.10;;;23.90;99.90;;;;;;4977228;28;20444;-85
2022/08/14 11:33:31;;;;;;;12.53;11.30;;;23.20;99.90;;;;;;4978464;28;20666;-81
2022/08/14 11:36:00;;;;;;;17.60;12.13;;;22.50;99.90;;;;;;4961251;28;20418;-81
2022/08/14 11:38:42;;;;;;;12.77;11.67;;;22.10;99.90;;;;;;4967766;28;20798;-82
2022/08/14 11:41:14;;;;;;;17.43;15.43;;;21.50;99.90;;;;;;4975751;28;20443;-85
2022/08/14 11:43:46;;;;;;;19.60;13.30;;;21.10;99.90;;;;;;4971585;28;20464;-82
2022/08/14 11:46:25;;;;;;;15.40;13.90;;;20.80;99.90;;;;;;4975132;28;20445;-83
2022/08/14 11:48:56;;;;;;;20.37;16.10;;;20.70;99.90;;;;;;4971234;28;20430;-82
2022/08/14 11:51:30;;;;;;;23.20;17.67;;;20.70;99.90;;;;;;4969643;28;20467;-82
2022/08/14 11:54:05;;;;;;;16.37;14.63;;;20.80;99.90;;;;;;4963993;28;20551;-79
2022/08/14 11:56:35;;;;;;;18.13;16.27;;;20.90;99.90;;;;;;4960161;28;20943;-78
2022/08/14 11:59:04;;;;;;;17.30;15.50;;;21.00;99.90;;;;;;4961916;28;20557;-80
2022/08/14 12:01:35;;;;;;;22.97;17.90;;;21.10;99.90;;;;;;4963604;28;20498;-78
2022/08/14 12:04:17;;;;;;;19.60;17.50;;;21.20;99.90;;;;;;4968492;28;20598;-78
2022/08/14 12:06:59;;;;;;;18.23;15.57;;;21.10;99.90;;;;;;4966555;28;20409;-79
2022/08/14 12:09:29;;;;;;;18.50;16.80;;;21.20;99.90;;;;;;4965757;28;20471;-79
2022/08/14 12:11:57;;;;;;;18.33;16.50;;;21.40;99.90;;;;;;4965931;28;20453;-79
2022/08/14 12:14:25;;;;;;;17.50;15.73;;;21.60;99.90;;;;;;4967280;28;20482;-79
2022/08/14 12:17:08;;;;;;;20.80;17.57;;;21.50;99.90;;;;;;4969742;28;20411;-79
2022/08/14 12:19:45;;;;;;;20.50;18.40;;;21.40;99.90;;;;;;4962777;28;20461;-81
2022/08/14 12:22:16;;;;;;;17.93;15.80;;;21.60;99.90;;;;;;4972493;28;20438;-80
2022/08/14 12:24:56;;;;;;;18.20;16.30;;;21.60;99.90;;;;;;4968522;28;20594;-79
2022/08/14 12:27:41;;;;;;;18.00;16.13;;;21.70;99.90;;;;;;4972355;28;20505;-79
2022/08/14 12:30:32;;;;;;;16.10;14.60;;;22.00;99.90;;;;;;4972220;28;20515;-82
2022/08/14 12:33:20;;;;;;;17.77;15.97;;;22.10;99.90;;;;;;4962932;28;20884;-80
2022/08/14 12:35:53;;;;;;;16.90;15.13;;;22.10;99.90;;;;;;4963116;28;20409;-79
2022/08/14 12:38:42;;;;;;;16.13;14.27;;;22.10;99.90;;;;;;4965314;28;20539;-78
2022/08/14 12:41:14;;;;;;;17.30;15.10;;;22.40;99.90;;;;;;4964857;28;20412;-78
2022/08/14 12:43:56;;;;;;;13.40;12.23;;;22.80;99.90;;;;;;4967646;28;20780;-79
2022/08/14 12:46:27;;;;;;;10.50;9.50;;;23.00;99.90;;;;;;4974501;28;20420;-78
2022/08/14 12:49:00;;;;;;;11.27;10.17;;;22.90;99.90;;;;;;4986688;28;20471;-81
2022/08/14 12:51:28;;;;;;;11.37;10.30;;;23.30;99.90;;;;;;4976746;28;20488;-78
2022/08/14 12:53:57;;;;;;;11.23;10.13;;;23.60;99.90;;;;;;4976137;28;20824;-79
2022/08/14 12:56:26;;;;;;;10.70;9.60;;;23.90;99.90;;;;;;4971786;28;20452;-79
2022/08/14 12:59:03;;;;;;;11.53;10.33;;;24.10;99.90;;;;;;4960926;28;20492;-79
2022/08/14 13:01:34;;;;;;;11.00;9.90;;;24.60;99.90;;;;;;4969635;28;20425;-78
2022/08/14 13:04:21;;;;;;;11.13;10.13;;;25.00;99.90;;;;;;4965801;28;20756;-79
2022/08/14 13:06:49;;;;;;;10.47;9.47;;;25.70;99.90;;;;;;4973184;28;20502;-79
2022/08/14 13:09:20;;;;;;;11.70;10.50;;;26.10;99.90;;;;;;4969357;28;20440;-78
2022/08/14 13:11:52;;;;;;;10.23;8.27;;;26.40;99.90;;;;;;4961277;28;20447;-79
2022/08/14 13:14:43;;;;;;;12.03;10.80;;;24.90;99.90;;;;;;4969032;28;20456;-79
2022/08/14 13:17:11;;;;;;;11.03;10.03;;;23.00;99.90;;;;;;4962648;28;20643;-79
2022/08/14 13:19:39;;;;;;;13.10;10.80;;;21.80;99.90;;;;;;4971739;28;20413;-79
2022/08/14 13:22:07;;;;;;;13.27;10.90;;;21.30;99.90;;;;;;4969215;28;20464;-79
2022/08/14 13:24:46;;;;;;;14.60;12.10;;;21.00;99.90;;;;;;4970714;28;20588;-81
2022/08/14 13:27:14;;;;;;;15.77;12.60;;;20.90;99.90;;;;;;4971092;28;20447;-78